Hlavní strana
METAR-TAF:

METAR-TAF

Letiště :

Maracaibo, Venezuela

zeměpisná šířka: 10-34N, zeměpisná délka: 071-44W, výška: 66 m

Aktuální stav počasí

Zpráva byla vytvořena před 49 minutami, v 13:02 UTC
Teplota
Tlak

METAR: SVMC 261302Z AUTO NIL

Čas: 09:51 (13:51 UTC)

Předpověď počasí

Zpráva byla vytvořena před 3 hodinami a 51 minutami, v 10:00 UTC
Předpověď platná od 26 v 12 UTC do 27 v 12 UTC
Jižní vítr 5 kt
Viditelnost 10 km a více
Polojasno ve výšce 1600 ft
Změna
od 26 v 12 UTC do 26 v 16 UTC
Jižní vítr 5 kt
Viditelnost: 8000 m
Polojasno ve výšce 1600 ft
Oblačno až skoro zataženo ve výšce 10000 ft
déšť

TAF: SVMC 261000Z 2612/2712 19005KT 9999 SCT016 TX31/19Z TN21/08Z BECMG 2612/2616 18005KT 8000 RA SCT016 BKN100

Stav a předpovědi počasí z více než 4 000 letišť (zprávy METAR a TAF).

Červené a žluté tečky na mapě představují dostupné meteorologické stanice.

Když kurzor umístíte na tečku, zobrazí se název stanice.

Pak kliknutím zobrazíte stav a předpověď počasí.

Chcete-li změnit mapu, kliknutím na zelené tlačítko se znaménkem +mapu přiblížíte, kliknutím na zelené tlačítko se znaménkem – mapu oddálíte a kliknutím na zelené šipky přejdete na sousední mapy.


METAR-TAF: